Time;durP1;ratioP1;P1;durP2;ratioP2;P2;SDS_P1;SDS_P2;PMS_P1;PMS_P2;Temp;Humidity;BMP_temperature;BMP_pressure;BME280_temperature;BME280_humidity;BME280_pressure;Samples;Min_cycle;Max_cycle;Signal;HPM_P1;HPM_P2
2023/10/27 00:00:57;;;;;;;23.80;8.40;;;;;;;;;;5056593;28;20116;-80
2023/10/27 00:03:22;;;;;;;20.65;7.93;;;;;;;;;;5075049;28;20021;-80
2023/10/27 00:05:48;;;;;;;28.77;9.53;;;;;;;;;;5074775;28;20028;-80
2023/10/27 00:08:13;;;;;;;31.85;8.93;;;;;;;;;;5056643;28;20273;-80
2023/10/27 00:10:38;;;;;;;22.05;7.45;;;;;;;;;;5075487;28;20040;-80
2023/10/27 00:13:04;;;;;;;21.20;7.65;;;;;;;;;;5057489;28;20028;-80
2023/10/27 00:15:29;;;;;;;21.57;7.67;;;;;;;;;;5074947;28;20024;-80
2023/10/27 00:17:56;;;;;;;19.93;6.97;;;;;;;;;;5075040;28;20253;-80
2023/10/27 00:20:22;;;;;;;22.23;7.47;;;;;;;;;;5057342;28;20116;-80
2023/10/27 00:22:47;;;;;;;18.02;7.22;;;;;;;;;;5056639;28;20131;-80
2023/10/27 00:25:12;;;;;;;24.37;7.83;;;;;;;;;;5056189;28;20028;-80
2023/10/27 00:27:38;;;;;;;15.70;6.60;;;;;;;;;;5056965;28;20066;-80
2023/10/27 00:30:03;;;;;;;17.97;6.73;;;;;;;;;;5074869;28;20265;-80
2023/10/27 00:32:29;;;;;;;20.55;6.15;;;;;;;;;;5056683;28;20249;-80
2023/10/27 00:34:54;;;;;;;11.50;5.65;;;;;;;;;;5074946;28;20021;-80
2023/10/27 00:37:19;;;;;;;19.70;6.28;;;;;;;;;;5075264;28;20056;-80
2023/10/27 00:39:44;;;;;;;13.70;6.27;;;;;;;;;;5075154;28;20119;-80
2023/10/27 00:42:09;;;;;;;12.50;5.30;;;;;;;;;;5074983;28;20012;-80
2023/10/27 00:44:35;;;;;;;15.47;4.80;;;;;;;;;;5057199;28;20249;-80
2023/10/27 00:47:01;;;;;;;20.10;5.05;;;;;;;;;;5074922;28;20326;-80
2023/10/27 00:49:27;;;;;;;17.08;5.55;;;;;;;;;;5075023;28;20137;-80
2023/10/27 00:51:53;;;;;;;12.38;4.93;;;;;;;;;;5074996;28;20065;-80
2023/10/27 00:54:20;;;;;;;21.65;6.25;;;;;;;;;;5056855;28;20012;-80
2023/10/27 00:56:45;;;;;;;9.00;4.32;;;;;;;;;;5056853;28;20107;-80
2023/10/27 00:59:11;;;;;;;17.40;4.85;;;;;;;;;;5056761;28;20104;-80
2023/10/27 01:01:36;;;;;;;11.80;4.25;;;;;;;;;;5056838;28;20024;-80
2023/10/27 01:04:02;;;;;;;9.65;4.30;;;;;;;;;;5054805;28;20044;-80
2023/10/27 01:06:27;;;;;;;14.63;3.92;;;;;;;;;;5074610;28;20020;-80
2023/10/27 01:08:52;;;;;;;11.63;3.30;;;;;;;;;;5074433;28;20062;-80
2023/10/27 01:11:18;;;;;;;8.77;3.05;;;;;;;;;;5056318;28;20257;-80
2023/10/27 01:13:43;;;;;;;18.38;3.40;;;;;;;;;;5074450;28;20028;-80
2023/10/27 01:16:09;;;;;;;10.05;2.47;;;;;;;;;;5074419;28;20021;-80
2023/10/27 01:18:34;;;;;;;8.13;2.23;;;;;;;;;;5056528;28;20051;-81
2023/10/27 01:20:59;;;;;;;11.00;2.40;;;;;;;;;;5056438;28;20277;-80
2023/10/27 01:23:25;;;;;;;10.47;3.17;;;;;;;;;;5073943;28;20784;-80
2023/10/27 01:25:50;;;;;;;11.45;2.25;;;;;;;;;;5056346;28;20052;-80
2023/10/27 01:28:16;;;;;;;7.67;2.37;;;;;;;;;;5074052;28;20060;-80
2023/10/27 01:30:41;;;;;;;6.83;1.73;;;;;;;;;;5056232;28;20237;-80
2023/10/27 01:33:06;;;;;;;7.90;2.07;;;;;;;;;;5056241;28;20257;-80
2023/10/27 01:35:31;;;;;;;14.95;2.20;;;;;;;;;;5055982;28;20237;-80
2023/10/27 01:37:57;;;;;;;9.25;1.90;;;;;;;;;;5073768;28;20038;-80
2023/10/27 01:40:22;;;;;;;8.05;2.08;;;;;;;;;;5074004;28;20016;-80
2023/10/27 01:42:47;;;;;;;6.55;1.42;;;;;;;;;;5056027;28;20058;-80
2023/10/27 01:45:13;;;;;;;7.55;1.75;;;;;;;;;;5056098;28;20046;-80
2023/10/27 01:47:39;;;;;;;6.18;1.70;;;;;;;;;;5073835;28;20020;-80
2023/10/27 01:50:05;;;;;;;9.43;2.03;;;;;;;;;;5073814;28;20021;-80
2023/10/27 01:52:30;;;;;;;8.60;1.58;;;;;;;;;;5073694;28;20464;-80
2023/10/27 01:54:57;;;;;;;13.60;2.07;;;;;;;;;;5074023;28;20016;-80
2023/10/27 01:57:23;;;;;;;10.27;1.73;;;;;;;;;;5055750;28;20662;-80
2023/10/27 01:59:48;;;;;;;7.60;1.50;;;;;;;;;;5055665;28;20055;-80
2023/10/27 02:02:15;;;;;;;3.17;1.23;;;;;;;;;;5073623;28;20052;-80
2023/10/27 02:04:40;;;;;;;6.50;1.65;;;;;;;;;;5055665;28;20659;-80
2023/10/27 02:07:06;;;;;;;11.57;1.50;;;;;;;;;;5054939;28;20040;-80
2023/10/27 02:09:31;;;;;;;5.72;1.33;;;;;;;;;;5073373;28;20019;-80
2023/10/27 02:11:57;;;;;;;3.37;1.40;;;;;;;;;;5073483;28;20388;-80
2023/10/27 02:14:23;;;;;;;4.57;1.13;;;;;;;;;;5055290;28;20261;-80
2023/10/27 02:16:48;;;;;;;5.82;1.33;;;;;;;;;;5073422;28;20092;-80
2023/10/27 02:19:13;;;;;;;5.27;1.43;;;;;;;;;;5055144;28;20020;-80
2023/10/27 02:21:39;;;;;;;5.55;1.67;;;;;;;;;;5055471;28;20008;-80
2023/10/27 02:24:04;;;;;;;6.93;1.92;;;;;;;;;;5073210;28;20139;-80
2023/10/27 02:26:29;;;;;;;4.45;1.35;;;;;;;;;;5055272;28;20030;-80
2023/10/27 02:28:55;;;;;;;7.47;1.33;;;;;;;;;;5073236;28;20024;-80
2023/10/27 02:31:20;;;;;;;8.95;1.40;;;;;;;;;;5055390;28;20265;-80
2023/10/27 02:33:45;;;;;;;4.90;1.33;;;;;;;;;;5055210;28;20455;-80
2023/10/27 02:36:10;;;;;;;4.47;1.33;;;;;;;;;;5073302;28;20788;-80
2023/10/27 02:38:35;;;;;;;4.13;1.20;;;;;;;;;;5054995;28;20269;-80
2023/10/27 02:41:11;;;;;;;6.07;1.30;;;;;;;;;;5055187;28;20617;-80
2023/10/27 02:43:37;;;;;;;3.60;1.23;;;;;;;;;;5055176;28;20261;-80
2023/10/27 02:46:03;;;;;;;4.07;0.90;;;;;;;;;;5055188;28;20383;-80
2023/10/27 02:48:28;;;;;;;3.38;1.02;;;;;;;;;;5075901;28;20103;-80
2023/10/27 02:50:54;;;;;;;10.07;1.25;;;;;;;;;;5077339;28;20055;-80
2023/10/27 02:53:19;;;;;;;6.55;1.70;;;;;;;;;;5077407;28;20457;-81
2023/10/27 02:55:44;;;;;;;6.85;1.27;;;;;;;;;;5059217;28;20146;-80
2023/10/27 02:58:10;;;;;;;3.25;1.17;;;;;;;;;;5059072;28;20035;-80
2023/10/27 03:00:39;;;;;;;6.72;1.35;;;;;;;;;;5059183;28;20059;-80
2023/10/27 03:03:04;;;;;;;7.80;1.45;;;;;;;;;;5058813;28;20024;-80
2023/10/27 03:05:29;;;;;;;4.33;1.00;;;;;;;;;;5076971;28;20027;-80
2023/10/27 03:07:54;;;;;;;8.37;1.60;;;;;;;;;;5058005;28;20383;-80
2023/10/27 03:10:20;;;;;;;10.00;1.40;;;;;;;;;;5076544;28;20027;-80
2023/10/27 03:12:45;;;;;;;4.15;1.40;;;;;;;;;;5058483;28;20078;-80
2023/10/27 03:15:11;;;;;;;7.07;1.27;;;;;;;;;;5076041;28;20111;-80
2023/10/27 03:17:36;;;;;;;5.83;1.80;;;;;;;;;;5058396;28;20028;-80
2023/10/27 03:20:04;;;;;;;7.22;2.70;;;;;;;;;;5058325;28;20262;-80
2023/10/27 03:22:30;;;;;;;6.72;1.63;;;;;;;;;;5050033;28;20048;-80
2023/10/27 03:24:55;;;;;;;3.60;1.40;;;;;;;;;;5058332;28;20482;-80
2023/10/27 03:27:21;;;;;;;6.43;2.03;;;;;;;;;;5076029;28;20316;-80
2023/10/27 03:29:46;;;;;;;5.95;1.52;;;;;;;;;;5058069;28;20532;-80
2023/10/27 03:32:11;;;;;;;15.48;2.13;;;;;;;;;;5058016;28;20048;-80
2023/10/27 03:34:36;;;;;;;5.60;1.70;;;;;;;;;;5075681;28;20078;-80
2023/10/27 03:37:02;;;;;;;9.73;1.98;;;;;;;;;;5058052;28;20336;-80
2023/10/27 03:39:27;;;;;;;7.60;2.10;;;;;;;;;;5057924;28;20021;-80
2023/10/27 03:41:53;;;;;;;5.03;1.67;;;;;;;;;;5057776;28;20030;-80
2023/10/27 03:44:18;;;;;;;4.63;1.90;;;;;;;;;;5057955;28;20025;-80
2023/10/27 03:46:43;;;;;;;13.13;2.60;;;;;;;;;;5075648;28;20020;-80
2023/10/27 03:49:08;;;;;;;8.90;2.08;;;;;;;;;;5057755;28;20017;-80
2023/10/27 03:51:34;;;;;;;5.00;2.03;;;;;;;;;;5057849;28;20070;-80
2023/10/27 03:53:59;;;;;;;10.07;2.67;;;;;;;;;;5057493;28;20111;-80
2023/10/27 03:56:24;;;;;;;9.73;2.67;;;;;;;;;;5057581;28;20104;-80
2023/10/27 03:58:49;;;;;;;6.28;2.25;;;;;;;;;;5056310;28;20034;-80
2023/10/27 04:01:15;;;;;;;3.97;1.90;;;;;;;;;;5075340;28;20070;-80
2023/10/27 04:03:40;;;;;;;10.65;2.15;;;;;;;;;;5075583;28;20327;-80
2023/10/27 04:06:05;;;;;;;8.50;2.03;;;;;;;;;;5057291;28;20392;-80
2023/10/27 04:08:31;;;;;;;6.53;1.90;;;;;;;;;;5075178;28;20641;-80
2023/10/27 04:10:56;;;;;;;4.85;1.67;;;;;;;;;;5075815;28;20487;-80
2023/10/27 04:13:22;;;;;;;5.85;1.70;;;;;;;;;;5057568;28;20036;-81
2023/10/27 04:15:47;;;;;;;2.53;1.40;;;;;;;;;;5057600;28;20027;-80
2023/10/27 04:18:12;;;;;;;7.97;1.73;;;;;;;;;;5057427;28;20253;-80
2023/10/27 04:20:38;;;;;;;9.30;1.60;;;;;;;;;;5057170;28;20679;-80
2023/10/27 04:23:04;;;;;;;10.27;2.05;;;;;;;;;;5057003;28;20352;-80
2023/10/27 04:25:29;;;;;;;11.52;2.15;;;;;;;;;;5075050;28;20060;-80
2023/10/27 04:27:55;;;;;;;2.17;1.05;;;;;;;;;;5048687;28;20027;-81
2023/10/27 04:30:20;;;;;;;3.78;1.35;;;;;;;;;;5056603;28;20029;-80
2023/10/27 04:32:45;;;;;;;3.45;1.10;;;;;;;;;;5057020;28;20381;-80
2023/10/27 04:35:12;;;;;;;5.63;1.08;;;;;;;;;;5056744;28;20020;-80
2023/10/27 04:37:38;;;;;;;5.00;1.20;;;;;;;;;;5074874;28;20032;-80
2023/10/27 04:40:04;;;;;;;2.92;1.33;;;;;;;;;;5074723;28;20024;-80
2023/10/27 04:42:29;;;;;;;1.80;0.70;;;;;;;;;;5056173;28;20028;-80
2023/10/27 04:44:54;;;;;;;1.08;0.60;;;;;;;;;;5057024;28;20031;-80
2023/10/27 04:47:20;;;;;;;2.38;0.75;;;;;;;;;;5074956;28;20441;-80
2023/10/27 04:49:46;;;;;;;0.83;0.50;;;;;;;;;;5075029;28;20580;-80
2023/10/27 04:52:11;;;;;;;1.55;0.45;;;;;;;;;;5056952;28;20337;-80
2023/10/27 04:54:36;;;;;;;1.53;0.40;;;;;;;;;;5057160;28;20031;-80
2023/10/27 04:57:04;;;;;;;0.60;0.40;;;;;;;;;;5056816;28;20263;-80
2023/10/27 04:59:30;;;;;;;2.50;0.57;;;;;;;;;;5056788;28;20254;-80
2023/10/27 05:01:56;;;;;;;1.02;0.50;;;;;;;;;;5056805;28;20111;-80
2023/10/27 05:04:21;;;;;;;4.10;0.65;;;;;;;;;;5056798;28;20388;-80
2023/10/27 05:06:46;;;;;;;1.20;0.50;;;;;;;;;;5074596;28;20019;-80
2023/10/27 05:09:12;;;;;;;3.58;1.02;;;;;;;;;;5056500;28;20265;-80
2023/10/27 05:11:38;;;;;;;3.33;0.82;;;;;;;;;;5056236;28;20020;-80
2023/10/27 05:14:03;;;;;;;4.00;1.08;;;;;;;;;;5056579;28;20511;-80
2023/10/27 05:16:28;;;;;;;1.17;0.57;;;;;;;;;;5074474;28;20545;-80
2023/10/27 05:18:54;;;;;;;0.87;0.40;;;;;;;;;;5056544;28;20314;-80
2023/10/27 05:21:19;;;;;;;2.95;0.63;;;;;;;;;;5056823;28;20024;-80
2023/10/27 05:23:45;;;;;;;1.52;0.70;;;;;;;;;;5052882;28;20094;-80
2023/10/27 05:26:10;;;;;;;1.08;0.47;;;;;;;;;;5052993;28;20523;-80
2023/10/27 05:28:35;;;;;;;1.27;0.50;;;;;;;;;;5054136;28;20079;-80
2023/10/27 05:31:00;;;;;;;1.07;0.53;;;;;;;;;;5052923;28;20020;-80
2023/10/27 05:33:25;;;;;;;1.27;0.38;;;;;;;;;;5054145;28;20487;-79
2023/10/27 05:35:51;;;;;;;0.87;0.40;;;;;;;;;;5052799;28;20029;-80
2023/10/27 05:38:16;;;;;;;0.50;0.30;;;;;;;;;;5054004;28;20587;-80
2023/10/27 05:40:41;;;;;;;1.58;0.80;;;;;;;;;;5053927;28;20472;-80
2023/10/27 05:43:07;;;;;;;1.13;0.47;;;;;;;;;;5052875;28;20028;-80
2023/10/27 05:45:32;;;;;;;0.55;0.50;;;;;;;;;;5052686;28;20748;-80
2023/10/27 05:47:57;;;;;;;0.73;0.50;;;;;;;;;;5052601;28;20534;-80
2023/10/27 05:50:22;;;;;;;0.97;0.50;;;;;;;;;;5052608;28;20013;-80
2023/10/27 05:52:48;;;;;;;1.37;0.50;;;;;;;;;;5052470;28;20029;-80
2023/10/27 05:55:13;;;;;;;0.43;0.40;;;;;;;;;;5053775;28;20253;-80
2023/10/27 05:57:38;;;;;;;1.50;0.60;;;;;;;;;;5052405;28;20052;-80
2023/10/27 06:00:04;;;;;;;1.38;0.47;;;;;;;;;;5052476;28;20052;-80
2023/10/27 06:02:29;;;;;;;2.47;0.40;;;;;;;;;;5052383;28;20380;-80
2023/10/27 06:04:54;;;;;;;2.13;0.53;;;;;;;;;;5052322;28;20116;-80
2023/10/27 06:07:20;;;;;;;0.97;0.63;;;;;;;;;;5052249;28;20270;-80
2023/10/27 06:09:45;;;;;;;4.18;0.70;;;;;;;;;;5053553;28;20246;-80
2023/10/27 06:12:10;;;;;;;1.48;0.50;;;;;;;;;;5052333;28;20017;-80
2023/10/27 06:14:35;;;;;;;3.63;0.40;;;;;;;;;;5053691;28;20091;-80
2023/10/27 06:17:01;;;;;;;3.37;0.53;;;;;;;;;;5053449;28;20527;-80
2023/10/27 06:19:26;;;;;;;1.00;0.57;;;;;;;;;;5052069;28;20246;-80
2023/10/27 06:21:52;;;;;;;3.53;0.68;;;;;;;;;;5051439;28;20420;-80
2023/10/27 06:24:17;;;;;;;5.53;0.57;;;;;;;;;;5071961;28;20097;-80
2023/10/27 06:26:42;;;;;;;1.50;0.70;;;;;;;;;;5055395;28;20024;-80
2023/10/27 06:29:08;;;;;;;0.50;0.50;;;;;;;;;;5073224;28;20273;-80
2023/10/27 06:31:33;;;;;;;2.60;0.73;;;;;;;;;;5055366;28;20032;-80
2023/10/27 06:33:58;;;;;;;1.77;0.88;;;;;;;;;;5055185;28;20256;-80
2023/10/27 06:36:25;;;;;;;3.43;0.60;;;;;;;;;;5055288;28;20013;-80
2023/10/27 06:38:50;;;;;;;2.55;0.80;;;;;;;;;;5055115;28;20253;-80
2023/10/27 06:41:15;;;;;;;2.70;0.80;;;;;;;;;;5055164;28;20369;-80
2023/10/27 06:43:40;;;;;;;2.27;0.63;;;;;;;;;;5073373;28;20024;-80
2023/10/27 06:46:05;;;;;;;1.60;0.80;;;;;;;;;;5073203;28;20021;-80
2023/10/27 06:48:31;;;;;;;1.63;0.90;;;;;;;;;;5073053;28;20384;-80
2023/10/27 06:50:56;;;;;;;0.77;0.60;;;;;;;;;;5055057;28;20737;-80
2023/10/27 06:53:21;;;;;;;1.13;0.60;;;;;;;;;;5073030;28;20013;-80
2023/10/27 06:55:47;;;;;;;0.98;0.50;;;;;;;;;;5055075;28;20253;-79
2023/10/27 06:58:12;;;;;;;1.30;0.73;;;;;;;;;;5054980;28;20017;-80
2023/10/27 07:00:37;;;;;;;1.90;0.90;;;;;;;;;;5055018;28;20021;-80
2023/10/27 07:03:03;;;;;;;1.27;0.67;;;;;;;;;;5055020;28;20261;-80
2023/10/27 07:05:29;;;;;;;0.55;0.55;;;;;;;;;;5072931;28;20253;-80
2023/10/27 07:07:54;;;;;;;1.88;0.70;;;;;;;;;;5072765;28;20020;-80
2023/10/27 07:10:19;;;;;;;1.10;0.75;;;;;;;;;;5054892;28;20027;-80
2023/10/27 07:12:44;;;;;;;2.05;0.80;;;;;;;;;;5072937;28;20024;-80
2023/10/27 07:15:11;;;;;;;0.50;0.50;;;;;;;;;;5072826;28;20016;-80
2023/10/27 07:17:37;;;;;;;1.10;0.63;;;;;;;;;;5072821;28;20256;-80
2023/10/27 07:20:03;;;;;;;2.08;0.80;;;;;;;;;;5072792;28;20017;-80
2023/10/27 07:22:28;;;;;;;2.10;0.95;;;;;;;;;;5054563;28;20113;-80
2023/10/27 07:24:53;;;;;;;1.27;0.70;;;;;;;;;;5072747;28;20029;-79
2023/10/27 07:27:18;;;;;;;1.13;0.50;;;;;;;;;;5072696;28;20039;-80
2023/10/27 07:29:44;;;;;;;0.85;0.55;;;;;;;;;;5072733;28;20257;-80
2023/10/27 07:32:09;;;;;;;1.17;0.70;;;;;;;;;;5072727;28;20461;-80
2023/10/27 07:34:34;;;;;;;0.87;0.60;;;;;;;;;;5075274;28;20260;-80
2023/10/27 07:37:00;;;;;;;1.23;0.50;;;;;;;;;;5058361;28;20245;-80
2023/10/27 07:39:25;;;;;;;1.10;0.63;;;;;;;;;;5076327;28;20709;-80
2023/10/27 07:41:50;;;;;;;0.77;0.57;;;;;;;;;;5058297;28;20397;-80
2023/10/27 07:44:16;;;;;;;1.15;0.50;;;;;;;;;;5058300;28;20066;-80
2023/10/27 07:46:41;;;;;;;2.37;0.93;;;;;;;;;;5058231;28;20021;-79
2023/10/27 07:49:06;;;;;;;1.43;0.80;;;;;;;;;;5076064;28;20288;-80
2023/10/27 07:51:32;;;;;;;1.90;0.55;;;;;;;;;;5076101;28;20016;-80
2023/10/27 07:53:57;;;;;;;1.33;0.40;;;;;;;;;;5058081;28;20104;-80
2023/10/27 07:56:22;;;;;;;1.97;0.63;;;;;;;;;;5076044;28;20027;-80
2023/10/27 07:58:48;;;;;;;0.67;0.57;;;;;;;;;;5075980;28;20383;-80
2023/10/27 08:01:13;;;;;;;1.80;0.77;;;;;;;;;;5058021;28;20806;-80
2023/10/27 08:03:38;;;;;;;2.50;0.70;;;;;;;;;;5057943;28;20074;-80
2023/10/27 08:06:07;;;;;;;5.32;1.10;;;;;;;;;;5075870;28;20055;-80
2023/10/27 08:08:33;;;;;;;2.88;0.95;;;;;;;;;;5057802;28;20017;-80
2023/10/27 08:10:58;;;;;;;1.27;0.60;;;;;;;;;;5075809;28;20020;-80
2023/10/27 08:13:24;;;;;;;2.00;0.60;;;;;;;;;;5057699;28;20012;-80
2023/10/27 08:15:49;;;;;;;1.20;0.70;;;;;;;;;;5057747;28;20260;-80
2023/10/27 08:18:15;;;;;;;3.28;0.90;;;;;;;;;;5057642;28;20246;-80
2023/10/27 08:20:40;;;;;;;0.97;0.87;;;;;;;;;;5057551;28;20024;-80
2023/10/27 08:23:05;;;;;;;2.72;1.08;;;;;;;;;;5057423;28;20360;-80
2023/10/27 08:25:30;;;;;;;2.20;0.97;;;;;;;;;;5057474;28;20052;-80
2023/10/27 08:27:56;;;;;;;2.73;0.83;;;;;;;;;;5075432;28;20112;-80
2023/10/27 08:30:21;;;;;;;3.07;1.00;;;;;;;;;;5075347;28;20340;-80
2023/10/27 08:32:46;;;;;;;4.13;1.07;;;;;;;;;;5075610;28;20015;-80
2023/10/27 08:35:11;;;;;;;3.78;1.10;;;;;;;;;;5075211;28;20376;-80
2023/10/27 08:37:36;;;;;;;4.78;0.90;;;;;;;;;;5075365;28;20016;-80
2023/10/27 08:40:03;;;;;;;6.13;1.47;;;;;;;;;;5057253;28;20084;-80
2023/10/27 08:42:32;;;;;;;5.78;2.20;;;;;;;;;;5075083;28;20481;-80
2023/10/27 08:44:57;;;;;;;5.35;2.03;;;;;;;;;;5074327;28;20065;-80
2023/10/27 08:47:22;;;;;;;2.90;1.53;;;;;;;;;;5057071;28;20025;-80
2023/10/27 08:49:48;;;;;;;3.88;1.55;;;;;;;;;;5074997;28;20256;-80
2023/10/27 08:52:14;;;;;;;4.27;1.63;;;;;;;;;;5074990;28;20030;-80
2023/10/27 08:54:42;;;;;;;4.65;1.70;;;;;;;;;;5056946;28;20745;-80
2023/10/27 08:57:08;;;;;;;6.43;1.88;;;;;;;;;;5056931;28;20044;-80
2023/10/27 08:59:35;;;;;;;6.75;1.52;;;;;;;;;;5056898;28;20534;-80
2023/10/27 09:02:01;;;;;;;8.23;1.88;;;;;;;;;;5074728;28;20483;-80
2023/10/27 09:04:26;;;;;;;9.05;1.95;;;;;;;;;;5074756;28;20016;-80
2023/10/27 09:06:51;;;;;;;7.53;1.95;;;;;;;;;;5056753;28;20020;-80
2023/10/27 09:09:18;;;;;;;4.23;1.40;;;;;;;;;;5056637;28;20052;-80
2023/10/27 09:11:45;;;;;;;12.90;2.15;;;;;;;;;;5074564;28;20328;-80
2023/10/27 09:14:23;;;;;;;4.35;1.67;;;;;;;;;;5056571;28;20079;-80
2023/10/27 09:16:49;;;;;;;4.45;1.40;;;;;;;;;;5074476;28;20009;-80
2023/10/27 09:19:22;;;;;;;7.13;1.50;;;;;;;;;;5074472;28;20107;-80
2023/10/27 09:21:47;;;;;;;7.10;2.17;;;;;;;;;;5074319;28;20507;-80
2023/10/27 09:24:23;;;;;;;5.97;1.48;;;;;;;;;;5056213;28;20076;-80
2023/10/27 09:26:48;;;;;;;6.82;1.20;;;;;;;;;;5056381;28;20055;-81
2023/10/27 09:29:14;;;;;;;4.15;1.30;;;;;;;;;;5056184;28;20064;-80
2023/10/27 09:31:39;;;;;;;10.05;1.35;;;;;;;;;;5056249;28;20024;-80
2023/10/27 09:34:24;;;;;;;7.05;1.55;;;;;;;;;;5056140;28;20389;-80
2023/10/27 09:36:57;;;;;;;8.90;1.65;;;;;;;;;;5074045;28;20024;-80
2023/10/27 09:39:23;;;;;;;5.95;1.45;;;;;;;;;;5056383;28;20056;-80
2023/10/27 09:41:55;;;;;;;9.32;1.92;;;;;;;;;;5056109;28;20048;-80
2023/10/27 09:44:26;;;;;;;9.50;2.15;;;;;;;;;;5073910;28;20484;-81
2023/10/27 09:46:54;;;;;;;6.40;1.05;;;;;;;;;;5073905;28;20093;-80
2023/10/27 09:49:24;;;;;;;5.57;1.35;;;;;;;;;;5055877;28;20469;-80
2023/10/27 09:51:51;;;;;;;10.82;1.58;;;;;;;;;;5055948;28;20020;-80
2023/10/27 09:54:16;;;;;;;6.20;1.48;;;;;;;;;;5073847;28;20017;-80
2023/10/27 09:56:42;;;;;;;6.80;1.30;;;;;;;;;;5073780;28;20013;-80
2023/10/27 09:59:07;;;;;;;7.95;1.70;;;;;;;;;;5073765;28;20290;-80
2023/10/27 10:01:32;;;;;;;5.97;1.70;;;;;;;;;;5073626;28;20017;-80
2023/10/27 10:03:58;;;;;;;7.03;1.20;;;;;;;;;;5055710;28;20025;-80
2023/10/27 10:06:23;;;;;;;9.52;1.38;;;;;;;;;;5055931;28;20024;-80
2023/10/27 10:09:26;;;;;;;7.78;1.65;;;;;;;;;;5073510;28;20028;-80
2023/10/27 10:11:53;;;;;;;6.88;1.38;;;;;;;;;;5055536;28;20472;-80
2023/10/27 10:14:36;;;;;;;7.82;1.80;;;;;;;;;;5073430;28;20013;-80
2023/10/27 10:17:01;;;;;;;7.80;1.83;;;;;;;;;;5055448;28;20020;-80
2023/10/27 10:19:45;;;;;;;5.72;1.30;;;;;;;;;;5055489;28;20534;-80
2023/10/27 10:22:30;;;;;;;7.30;1.70;;;;;;;;;;5055163;28;20017;-80
2023/10/27 10:25:25;;;;;;;3.55;1.20;;;;;;;;;;5055180;28;20021;-80
2023/10/27 10:28:08;;;;;;;6.47;1.35;;;;;;;;;;5059370;28;20115;-80
2023/10/27 10:30:34;;;;;;;7.07;1.35;;;;;;;;;;5072558;28;20024;-80
2023/10/27 10:33:22;;;;;;;6.17;1.20;;;;;;;;;;5072403;28;20028;-80
2023/10/27 10:35:47;;;;;;;6.90;1.48;;;;;;;;;;5054776;28;20829;-80
2023/10/27 10:38:21;;;;;;;6.47;1.27;;;;;;;;;;5072622;28;20093;-80
2023/10/27 10:40:50;;;;;;;7.43;1.80;;;;;;;;;;5054676;28;20027;-80
2023/10/27 10:43:19;;;;;;;7.85;1.50;;;;;;;;;;5072857;28;20021;-80
2023/10/27 10:45:45;;;;;;;6.22;1.88;;;;;;;;;;5072589;28;20103;-81
2023/10/27 10:48:10;;;;;;;5.75;1.73;;;;;;;;;;5064185;28;20029;-81
2023/10/27 10:50:36;;;;;;;4.43;1.70;;;;;;;;;;5054523;28;20182;-81
2023/10/27 10:53:19;;;;;;;9.63;2.23;;;;;;;;;;5054003;28;20031;-81
2023/10/27 10:55:45;;;;;;;7.10;1.90;;;;;;;;;;5067613;28;20300;-82
2023/10/27 10:58:19;;;;;;;4.70;1.67;;;;;;;;;;5059637;28;20484;-81
2023/10/27 11:00:44;;;;;;;2.95;1.38;;;;;;;;;;5061877;28;20030;-81
2023/10/27 11:03:10;;;;;;;6.50;1.73;;;;;;;;;;5058190;28;20025;-81
2023/10/27 11:05:36;;;;;;;4.50;1.40;;;;;;;;;;5083678;28;20111;-81
2023/10/27 11:08:01;;;;;;;6.43;1.80;;;;;;;;;;5057209;28;20106;-81
2023/10/27 11:10:26;;;;;;;6.97;1.48;;;;;;;;;;5078842;28;20499;-81
2023/10/27 11:12:52;;;;;;;3.25;1.35;;;;;;;;;;5058196;28;20020;-81
2023/10/27 11:15:36;;;;;;;4.72;1.60;;;;;;;;;;5057813;28;20017;-81
2023/10/27 11:18:05;;;;;;;5.25;1.13;;;;;;;;;;5051859;28;20016;-81
2023/10/27 11:20:37;;;;;;;2.28;1.20;;;;;;;;;;5057911;28;20039;-81
2023/10/27 11:23:09;;;;;;;9.50;1.73;;;;;;;;;;5075661;28;20395;-81
2023/10/27 11:25:34;;;;;;;4.63;1.70;;;;;;;;;;5074971;28;20099;-80
2023/10/27 11:28:18;;;;;;;7.47;1.40;;;;;;;;;;5075515;28;20115;-81
2023/10/27 11:30:43;;;;;;;2.75;0.98;;;;;;;;;;5075393;28;20105;-81
2023/10/27 11:33:11;;;;;;;3.28;1.13;;;;;;;;;;5057645;28;20047;-81
2023/10/27 11:35:45;;;;;;;3.35;1.02;;;;;;;;;;5057467;28;20031;-81
2023/10/27 11:38:11;;;;;;;4.03;1.20;;;;;;;;;;5075362;28;20476;-81
2023/10/27 11:40:37;;;;;;;4.85;1.30;;;;;;;;;;5058032;28;20023;-81
2023/10/27 11:43:02;;;;;;;6.40;1.55;;;;;;;;;;5075860;28;20021;-80
2023/10/27 11:45:27;;;;;;;5.57;1.50;;;;;;;;;;5057754;28;20021;-81
2023/10/27 11:47:53;;;;;;;5.47;1.83;;;;;;;;;;5057766;28;20472;-81
2023/10/27 11:50:18;;;;;;;3.77;1.40;;;;;;;;;;5075752;28;20318;-81
2023/10/27 11:52:43;;;;;;;5.78;1.25;;;;;;;;;;5075537;28;20629;-81
2023/10/27 11:55:08;;;;;;;3.77;1.20;;;;;;;;;;5075633;28;20086;-81
2023/10/27 11:57:34;;;;;;;5.03;1.00;;;;;;;;;;5057483;28;20020;-81
2023/10/27 11:59:59;;;;;;;3.17;1.00;;;;;;;;;;5057675;28;20338;-82
2023/10/27 12:02:24;;;;;;;4.50;0.90;;;;;;;;;;5057635;28;20258;-81
2023/10/27 12:04:49;;;;;;;4.60;1.20;;;;;;;;;;5057264;28;20077;-82
2023/10/27 12:07:17;;;;;;;4.43;1.07;;;;;;;;;;5057494;28;20257;-81
2023/10/27 12:09:42;;;;;;;4.55;0.88;;;;;;;;;;5075275;28;20021;-84
2023/10/27 12:12:09;;;;;;;8.38;0.90;;;;;;;;;;5075092;28;20031;-81
2023/10/27 12:14:34;;;;;;;3.95;0.85;;;;;;;;;;5057331;28;20487;-81
2023/10/27 12:16:59;;;;;;;6.18;0.90;;;;;;;;;;5075524;28;20024;-81
2023/10/27 12:19:24;;;;;;;2.47;0.50;;;;;;;;;;5075114;28;20450;-81
2023/10/27 12:21:50;;;;;;;3.75;0.90;;;;;;;;;;5056417;28;20665;-81
2023/10/27 12:24:15;;;;;;;4.82;1.00;;;;;;;;;;5053291;28;20442;-81
2023/10/27 12:26:40;;;;;;;5.45;0.93;;;;;;;;;;5055124;28;20017;-81
2023/10/27 12:29:08;;;;;;;1.90;0.75;;;;;;;;;;5053705;28;20093;-81
2023/10/27 12:31:33;;;;;;;2.55;0.63;;;;;;;;;;5053458;28;20071;-81
2023/10/27 12:33:58;;;;;;;4.03;0.63;;;;;;;;;;5054909;28;20021;-81
2023/10/27 12:36:24;;;;;;;3.17;1.17;;;;;;;;;;5053386;28;20397;-81
2023/10/27 12:38:50;;;;;;;1.88;0.88;;;;;;;;;;5053677;28;20032;-81
2023/10/27 12:41:15;;;;;;;4.60;0.73;;;;;;;;;;5053506;28;20036;-81
2023/10/27 12:43:40;;;;;;;9.90;1.07;;;;;;;;;;5054682;28;20477;-80
2023/10/27 12:46:05;;;;;;;7.80;0.97;;;;;;;;;;5053471;28;20420;-80
2023/10/27 12:48:32;;;;;;;5.38;1.05;;;;;;;;;;5053161;28;20840;-81
2023/10/27 12:50:57;;;;;;;7.03;1.13;;;;;;;;;;5052986;28;20078;-81
2023/10/27 12:53:24;;;;;;;4.30;1.00;;;;;;;;;;5054611;28;20104;-81
2023/10/27 12:55:49;;;;;;;4.55;1.48;;;;;;;;;;5053353;28;20028;-81
2023/10/27 12:58:14;;;;;;;3.92;0.88;;;;;;;;;;5053122;28;20021;-80
2023/10/27 13:00:40;;;;;;;3.05;1.00;;;;;;;;;;5053230;28;20043;-81
2023/10/27 13:03:05;;;;;;;2.53;0.80;;;;;;;;;;5053033;28;20049;-81
2023/10/27 13:05:30;;;;;;;3.13;1.13;;;;;;;;;;5054297;28;20293;-82
2023/10/27 13:07:56;;;;;;;4.75;1.08;;;;;;;;;;5054115;28;20313;-81
2023/10/27 13:10:25;;;;;;;5.65;1.05;;;;;;;;;;5037836;28;20024;-80
2023/10/27 13:12:55;;;;;;;3.35;1.05;;;;;;;;;;5052925;28;20116;-81
2023/10/27 13:15:20;;;;;;;1.63;0.65;;;;;;;;;;5045259;28;20061;-81
2023/10/27 13:17:45;;;;;;;6.67;1.33;;;;;;;;;;5063882;28;20448;-81
2023/10/27 13:20:13;;;;;;;4.40;1.15;;;;;;;;;;5062480;28;20257;-81
2023/10/27 13:22:39;;;;;;;5.28;1.10;;;;;;;;;;5060231;28;20066;-81
2023/10/27 13:25:07;;;;;;;6.88;1.27;;;;;;;;;;5060742;28;20017;-80
2023/10/27 13:27:32;;;;;;;6.43;1.10;;;;;;;;;;5048423;28;20029;-80
2023/10/27 13:29:58;;;;;;;4.07;1.10;;;;;;;;;;5063426;28;20021;-81
2023/10/27 13:32:27;;;;;;;5.20;0.90;;;;;;;;;;5051840;28;20017;-80
2023/10/27 13:34:52;;;;;;;6.40;1.02;;;;;;;;;;5053197;28;20390;-81
2023/10/27 13:37:18;;;;;;;8.18;1.00;;;;;;;;;;5051824;28;20111;-80
2023/10/27 13:39:43;;;;;;;2.70;0.80;;;;;;;;;;5053387;28;20052;-81
2023/10/27 13:42:09;;;;;;;5.38;1.13;;;;;;;;;;5052162;28;20254;-80
2023/10/27 13:44:37;;;;;;;3.72;0.75;;;;;;;;;;5051914;28;20025;-81
2023/10/27 13:47:03;;;;;;;1.08;0.73;;;;;;;;;;5051573;28;20483;-81
2023/10/27 13:49:28;;;;;;;1.45;0.52;;;;;;;;;;5051898;28;20028;-81
2023/10/27 13:51:53;;;;;;;6.83;0.90;;;;;;;;;;5052870;28;20025;-81
2023/10/27 13:54:19;;;;;;;3.33;0.97;;;;;;;;;;5051872;28;20017;-81
2023/10/27 13:56:44;;;;;;;4.87;0.70;;;;;;;;;;5051356;28;20274;-81
2023/10/27 13:59:10;;;;;;;6.97;0.90;;;;;;;;;;5053161;28;20258;-81
2023/10/27 14:01:35;;;;;;;4.10;0.60;;;;;;;;;;5060084;28;20257;-81
2023/10/27 14:04:00;;;;;;;7.40;0.70;;;;;;;;;;5051386;28;20036;-80
2023/10/27 14:06:26;;;;;;;4.65;0.80;;;;;;;;;;5051724;28;20280;-81
2023/10/27 14:08:51;;;;;;;2.75;0.60;;;;;;;;;;5052495;28;20017;-81
2023/10/27 14:11:17;;;;;;;5.95;0.57;;;;;;;;;;5053196;28;20061;-81
2023/10/27 14:13:44;;;;;;;2.45;0.60;;;;;;;;;;5053110;28;20083;-80
2023/10/27 14:16:10;;;;;;;5.00;0.47;;;;;;;;;;5051247;28;20096;-80
2023/10/27 14:18:37;;;;;;;3.05;0.68;;;;;;;;;;5051887;28;20060;-80
2023/10/27 14:21:02;;;;;;;7.00;0.80;;;;;;;;;;5053033;28;20012;-80
2023/10/27 14:23:27;;;;;;;3.13;0.50;;;;;;;;;;5051676;28;20045;-81
2023/10/27 14:25:52;;;;;;;4.80;0.53;;;;;;;;;;5051155;28;20027;-81
2023/10/27 14:28:19;;;;;;;0.93;0.40;;;;;;;;;;5051249;28;20284;-81
2023/10/27 14:30:44;;;;;;;4.03;0.95;;;;;;;;;;5059489;28;20759;-81
2023/10/27 14:33:09;;;;;;;3.23;0.80;;;;;;;;;;5051327;28;20017;-81
2023/10/27 14:35:36;;;;;;;2.00;0.80;;;;;;;;;;5051036;28;20265;-80